sensor_id;sensor_type;location;lat;lon;timestamp;pressure;altitude;pressure_sealevel;temperature;humidity
34961;BME280;30789;52.030;7.110;2023-04-25T00:00:23;100110.38;;;6.42;86.98
34961;BME280;30789;52.030;7.110;2023-04-25T00:02:50;100115.13;;;6.45;87.33
34961;BME280;30789;52.030;7.110;2023-04-25T00:05:16;100114.44;;;6.52;87.05
34961;BME280;30789;52.030;7.110;2023-04-25T00:07:44;100109.69;;;6.49;86.93
34961;BME280;30789;52.030;7.110;2023-04-25T00:10:11;100115.66;;;6.54;86.72
34961;BME280;30789;52.030;7.110;2023-04-25T00:12:38;100119.13;;;6.51;87.45
34961;BME280;30789;52.030;7.110;2023-04-25T00:15:05;100126.38;;;6.66;87.33
34961;BME280;30789;52.030;7.110;2023-04-25T00:17:32;100131.75;;;6.33;88.55
34961;BME280;30789;52.030;7.110;2023-04-25T00:19:59;100122.31;;;6.57;87.84
34961;BME280;30789;52.030;7.110;2023-04-25T00:22:26;100130.09;;;6.51;88.04
34961;BME280;30789;52.030;7.110;2023-04-25T00:24:54;100127.19;;;6.41;88.79
34961;BME280;30789;52.030;7.110;2023-04-25T00:27:22;100133.50;;;6.45;88.49
34961;BME280;30789;52.030;7.110;2023-04-25T00:29:48;100132.81;;;6.51;88.64
34961;BME280;30789;52.030;7.110;2023-04-25T00:32:15;100130.53;;;6.57;88.23
34961;BME280;30789;52.030;7.110;2023-04-25T00:34:41;100132.84;;;6.55;88.36
34961;BME280;30789;52.030;7.110;2023-04-25T00:37:08;100135.22;;;6.56;87.89
34961;BME280;30789;52.030;7.110;2023-04-25T00:39:35;100134.03;;;6.87;87.84
34961;BME280;30789;52.030;7.110;2023-04-25T00:42:04;100140.88;;;6.70;87.35
34961;BME280;30789;52.030;7.110;2023-04-25T00:44:31;100135.66;;;6.58;87.79
34961;BME280;30789;52.030;7.110;2023-04-25T00:46:58;100138.25;;;6.48;88.13
34961;BME280;30789;52.030;7.110;2023-04-25T00:49:24;100142.59;;;6.52;88.63
34961;BME280;30789;52.030;7.110;2023-04-25T00:51:51;100142.81;;;6.70;87.94
34961;BME280;30789;52.030;7.110;2023-04-25T00:54:17;100144.41;;;6.71;87.38
34961;BME280;30789;52.030;7.110;2023-04-25T00:56:44;100145.78;;;6.54;86.90
34961;BME280;30789;52.030;7.110;2023-04-25T00:59:15;100141.56;;;6.64;87.13
34961;BME280;30789;52.030;7.110;2023-04-25T01:01:41;100138.75;;;6.57;86.99
34961;BME280;30789;52.030;7.110;2023-04-25T01:04:08;100151.69;;;6.60;86.91
34961;BME280;30789;52.030;7.110;2023-04-25T01:06:35;100151.63;;;6.56;87.06
34961;BME280;30789;52.030;7.110;2023-04-25T01:09:02;100150.31;;;6.47;86.51
34961;BME280;30789;52.030;7.110;2023-04-25T01:11:30;100150.53;;;6.61;86.36
34961;BME280;30789;52.030;7.110;2023-04-25T01:13:56;100158.28;;;6.55;85.94
34961;BME280;30789;52.030;7.110;2023-04-25T01:16:24;100157.78;;;6.46;85.61
34961;BME280;30789;52.030;7.110;2023-04-25T01:18:52;100154.72;;;6.25;86.27
34961;BME280;30789;52.030;7.110;2023-04-25T01:21:20;100160.28;;;6.32;86.17
34961;BME280;30789;52.030;7.110;2023-04-25T01:23:47;100156.50;;;6.40;85.78
34961;BME280;30789;52.030;7.110;2023-04-25T01:26:13;100163.69;;;6.52;85.63
34961;BME280;30789;52.030;7.110;2023-04-25T01:28:40;100167.19;;;6.49;85.49
34961;BME280;30789;52.030;7.110;2023-04-25T01:31:07;100171.03;;;6.44;86.18
34961;BME280;30789;52.030;7.110;2023-04-25T01:33:34;100164.34;;;6.42;85.44
34961;BME280;30789;52.030;7.110;2023-04-25T01:36:00;100168.19;;;6.37;84.95
34961;BME280;30789;52.030;7.110;2023-04-25T01:38:29;100167.41;;;6.37;85.16
34961;BME280;30789;52.030;7.110;2023-04-25T01:40:56;100164.00;;;6.21;85.61
34961;BME280;30789;52.030;7.110;2023-04-25T01:43:22;100159.78;;;6.49;85.36
34961;BME280;30789;52.030;7.110;2023-04-25T01:45:49;100170.44;;;6.58;85.09
34961;BME280;30789;52.030;7.110;2023-04-25T01:48:16;100170.50;;;6.61;84.68
34961;BME280;30789;52.030;7.110;2023-04-25T01:50:44;100155.50;;;6.52;84.43
34961;BME280;30789;52.030;7.110;2023-04-25T01:53:12;100156.09;;;6.38;84.52
34961;BME280;30789;52.030;7.110;2023-04-25T01:55:40;100154.09;;;6.35;84.96
34961;BME280;30789;52.030;7.110;2023-04-25T01:58:08;100164.38;;;6.45;85.18
34961;BME280;30789;52.030;7.110;2023-04-25T02:00:35;100181.75;;;6.30;85.40
34961;BME280;30789;52.030;7.110;2023-04-25T02:03:03;100179.72;;;6.24;86.20
34961;BME280;30789;52.030;7.110;2023-04-25T02:05:34;100185.34;;;6.34;85.49
34961;BME280;30789;52.030;7.110;2023-04-25T02:08:00;100188.63;;;6.43;85.96
34961;BME280;30789;52.030;7.110;2023-04-25T02:10:27;100199.41;;;6.59;84.99
34961;BME280;30789;52.030;7.110;2023-04-25T02:12:55;100195.34;;;6.49;85.23
34961;BME280;30789;52.030;7.110;2023-04-25T02:15:22;100198.03;;;6.46;85.12
34961;BME280;30789;52.030;7.110;2023-04-25T02:17:49;100200.31;;;6.40;84.89
34961;BME280;30789;52.030;7.110;2023-04-25T02:20:17;100201.97;;;6.48;85.51
34961;BME280;30789;52.030;7.110;2023-04-25T02:22:45;100192.69;;;6.30;85.99
34961;BME280;30789;52.030;7.110;2023-04-25T02:25:11;100199.41;;;6.33;86.19
34961;BME280;30789;52.030;7.110;2023-04-25T02:27:38;100196.50;;;6.22;86.61
34961;BME280;30789;52.030;7.110;2023-04-25T02:30:07;100198.59;;;6.32;85.93
34961;BME280;30789;52.030;7.110;2023-04-25T02:32:34;100202.28;;;6.17;86.12
34961;BME280;30789;52.030;7.110;2023-04-25T02:35:00;100208.50;;;6.14;86.22
34961;BME280;30789;52.030;7.110;2023-04-25T02:37:29;100216.53;;;6.04;86.12
34961;BME280;30789;52.030;7.110;2023-04-25T02:39:55;100207.28;;;6.38;85.21
34961;BME280;30789;52.030;7.110;2023-04-25T02:42:21;100209.09;;;6.27;84.98
34961;BME280;30789;52.030;7.110;2023-04-25T02:44:48;100217.16;;;6.20;85.36
34961;BME280;30789;52.030;7.110;2023-04-25T02:47:16;100215.91;;;6.14;85.38
34961;BME280;30789;52.030;7.110;2023-04-25T02:49:42;100213.94;;;5.92;86.30
34961;BME280;30789;52.030;7.110;2023-04-25T02:52:09;100224.94;;;6.18;85.77
34961;BME280;30789;52.030;7.110;2023-04-25T02:54:35;100221.41;;;6.40;84.93
34961;BME280;30789;52.030;7.110;2023-04-25T02:57:02;100230.13;;;6.23;84.43
34961;BME280;30789;52.030;7.110;2023-04-25T02:59:28;100236.63;;;6.15;85.38
34961;BME280;30789;52.030;7.110;2023-04-25T03:01:55;100230.66;;;6.09;84.80
34961;BME280;30789;52.030;7.110;2023-04-25T03:04:22;100232.03;;;5.96;85.03
34961;BME280;30789;52.030;7.110;2023-04-25T03:06:49;100233.09;;;5.92;85.49
34961;BME280;30789;52.030;7.110;2023-04-25T03:09:16;100226.41;;;5.89;84.70
34961;BME280;30789;52.030;7.110;2023-04-25T03:11:44;100230.47;;;5.76;85.50
34961;BME280;30789;52.030;7.110;2023-04-25T03:14:10;100229.44;;;5.84;85.91
34961;BME280;30789;52.030;7.110;2023-04-25T03:16:37;100238.63;;;5.95;83.68
34961;BME280;30789;52.030;7.110;2023-04-25T03:19:04;100241.38;;;5.95;84.02
34961;BME280;30789;52.030;7.110;2023-04-25T03:21:34;100237.06;;;5.94;84.40
34961;BME280;30789;52.030;7.110;2023-04-25T03:24:02;100238.56;;;5.92;83.85
34961;BME280;30789;52.030;7.110;2023-04-25T03:26:29;100237.59;;;6.03;83.06
34961;BME280;30789;52.030;7.110;2023-04-25T03:28:55;100245.44;;;6.27;82.51
34961;BME280;30789;52.030;7.110;2023-04-25T03:31:22;100240.81;;;6.09;82.93
34961;BME280;30789;52.030;7.110;2023-04-25T03:33:48;100244.78;;;6.11;82.22
34961;BME280;30789;52.030;7.110;2023-04-25T03:36:15;100242.97;;;5.96;82.62
34961;BME280;30789;52.030;7.110;2023-04-25T03:38:42;100244.91;;;5.77;83.21
34961;BME280;30789;52.030;7.110;2023-04-25T03:41:09;100249.47;;;5.88;83.50
34961;BME280;30789;52.030;7.110;2023-04-25T03:43:35;100249.16;;;5.74;82.66
34961;BME280;30789;52.030;7.110;2023-04-25T03:46:02;100244.81;;;5.92;83.02
34961;BME280;30789;52.030;7.110;2023-04-25T03:48:28;100249.75;;;6.06;82.43
34961;BME280;30789;52.030;7.110;2023-04-25T03:50:55;100251.47;;;5.91;82.29
34961;BME280;30789;52.030;7.110;2023-04-25T03:53:21;100258.03;;;6.09;82.21
34961;BME280;30789;52.030;7.110;2023-04-25T03:55:49;100255.94;;;6.03;82.17
34961;BME280;30789;52.030;7.110;2023-04-25T03:58:16;100253.66;;;6.05;81.87
34961;BME280;30789;52.030;7.110;2023-04-25T04:00:42;100260.47;;;6.14;81.55
34961;BME280;30789;52.030;7.110;2023-04-25T04:03:09;100259.97;;;5.86;82.71
34961;BME280;30789;52.030;7.110;2023-04-25T04:05:36;100253.31;;;5.87;81.88
34961;BME280;30789;52.030;7.110;2023-04-25T04:08:05;100261.53;;;5.68;82.34
34961;BME280;30789;52.030;7.110;2023-04-25T04:10:32;100259.72;;;5.76;82.72
34961;BME280;30789;52.030;7.110;2023-04-25T04:13:00;100263.69;;;5.78;82.93
34961;BME280;30789;52.030;7.110;2023-04-25T04:15:26;100270.22;;;5.74;82.99
34961;BME280;30789;52.030;7.110;2023-04-25T04:17:52;100261.88;;;5.86;82.95
34961;BME280;30789;52.030;7.110;2023-04-25T04:20:20;100268.88;;;5.64;83.38
34961;BME280;30789;52.030;7.110;2023-04-25T04:22:46;100277.03;;;5.61;83.54
34961;BME280;30789;52.030;7.110;2023-04-25T04:25:13;100279.53;;;5.69;83.08
34961;BME280;30789;52.030;7.110;2023-04-25T04:27:39;100283.94;;;5.55;83.28
34961;BME280;30789;52.030;7.110;2023-04-25T04:30:08;100281.97;;;5.55;83.08
34961;BME280;30789;52.030;7.110;2023-04-25T04:32:35;100294.19;;;5.61;83.03
34961;BME280;30789;52.030;7.110;2023-04-25T04:35:01;100286.66;;;5.55;83.28
34961;BME280;30789;52.030;7.110;2023-04-25T04:37:29;100285.28;;;5.64;82.78
34961;BME280;30789;52.030;7.110;2023-04-25T04:39:56;100281.84;;;5.48;82.80
34961;BME280;30789;52.030;7.110;2023-04-25T04:42:22;100294.06;;;5.73;82.40
34961;BME280;30789;52.030;7.110;2023-04-25T04:44:49;100294.34;;;5.68;82.39
34961;BME280;30789;52.030;7.110;2023-04-25T04:47:18;100297.28;;;5.79;82.53
34961;BME280;30789;52.030;7.110;2023-04-25T04:49:45;100302.72;;;5.56;82.50
34961;BME280;30789;52.030;7.110;2023-04-25T04:52:11;100297.28;;;5.79;82.19
34961;BME280;30789;52.030;7.110;2023-04-25T04:54:38;100306.84;;;5.69;82.13
34961;BME280;30789;52.030;7.110;2023-04-25T04:57:04;100302.69;;;5.75;82.37
34961;BME280;30789;52.030;7.110;2023-04-25T04:59:31;100311.47;;;5.84;81.96
34961;BME280;30789;52.030;7.110;2023-04-25T05:01:57;100309.63;;;5.88;82.12
34961;BME280;30789;52.030;7.110;2023-04-25T05:04:25;100312.03;;;5.74;82.30
34961;BME280;30789;52.030;7.110;2023-04-25T05:06:51;100317.44;;;5.71;82.56
34961;BME280;30789;52.030;7.110;2023-04-25T05:09:18;100318.22;;;5.90;82.52
34961;BME280;30789;52.030;7.110;2023-04-25T05:11:44;100336.16;;;5.88;82.37
34961;BME280;30789;52.030;7.110;2023-04-25T05:14:11;100336.81;;;5.62;82.47
34961;BME280;30789;52.030;7.110;2023-04-25T05:16:37;100336.44;;;5.64;82.99
34961;BME280;30789;52.030;7.110;2023-04-25T05:19:04;100333.91;;;5.55;83.25
34961;BME280;30789;52.030;7.110;2023-04-25T05:21:32;100343.84;;;5.63;83.03
34961;BME280;30789;52.030;7.110;2023-04-25T05:23:58;100337.38;;;5.90;82.54
34961;BME280;30789;52.030;7.110;2023-04-25T05:26:25;100338.00;;;5.65;82.56
34961;BME280;30789;52.030;7.110;2023-04-25T05:28:55;100344.13;;;5.58;82.38
34961;BME280;30789;52.030;7.110;2023-04-25T05:31:22;100343.75;;;5.60;82.82
34961;BME280;30789;52.030;7.110;2023-04-25T05:33:48;100359.84;;;5.99;82.09
34961;BME280;30789;52.030;7.110;2023-04-25T05:36:15;100354.94;;;5.89;81.78
34961;BME280;30789;52.030;7.110;2023-04-25T05:38:43;100356.38;;;6.02;81.42
34961;BME280;30789;52.030;7.110;2023-04-25T05:41:09;100357.59;;;6.05;81.07
34961;BME280;30789;52.030;7.110;2023-04-25T05:43:36;100362.88;;;5.94;82.28
34961;BME280;30789;52.030;7.110;2023-04-25T05:46:02;100363.06;;;5.86;82.77
34961;BME280;30789;52.030;7.110;2023-04-25T05:48:29;100363.34;;;6.00;82.07
34961;BME280;30789;52.030;7.110;2023-04-25T05:50:56;100372.31;;;6.19;81.83
34961;BME280;30789;52.030;7.110;2023-04-25T05:53:22;100379.16;;;6.29;81.49
34961;BME280;30789;52.030;7.110;2023-04-25T05:55:50;100387.69;;;6.24;80.76
34961;BME280;30789;52.030;7.110;2023-04-25T05:58:16;100383.44;;;6.49;80.34
34961;BME280;30789;52.030;7.110;2023-04-25T06:00:43;100387.44;;;6.32;79.85
34961;BME280;30789;52.030;7.110;2023-04-25T06:03:09;100380.38;;;6.31;79.73
34961;BME280;30789;52.030;7.110;2023-04-25T06:05:36;100388.97;;;6.52;79.37
34961;BME280;30789;52.030;7.110;2023-04-25T06:08:03;100387.06;;;6.34;78.40
34961;BME280;30789;52.030;7.110;2023-04-25T06:10:29;100392.06;;;6.28;78.80
34961;BME280;30789;52.030;7.110;2023-04-25T06:12:57;100393.38;;;6.38;79.34
34961;BME280;30789;52.030;7.110;2023-04-25T06:15:23;100396.56;;;6.21;79.76
34961;BME280;30789;52.030;7.110;2023-04-25T06:17:50;100409.97;;;6.45;79.38
34961;BME280;30789;52.030;7.110;2023-04-25T06:20:16;100411.97;;;6.48;78.95
34961;BME280;30789;52.030;7.110;2023-04-25T06:22:43;100409.97;;;6.67;78.49
34961;BME280;30789;52.030;7.110;2023-04-25T06:25:09;100402.72;;;6.56;78.09
34961;BME280;30789;52.030;7.110;2023-04-25T06:27:36;100415.16;;;6.72;78.66
34961;BME280;30789;52.030;7.110;2023-04-25T06:30:05;100414.88;;;6.81;77.02
34961;BME280;30789;52.030;7.110;2023-04-25T06:32:32;100417.44;;;6.70;77.34
34961;BME280;30789;52.030;7.110;2023-04-25T06:34:59;100420.13;;;6.67;76.90
34961;BME280;30789;52.030;7.110;2023-04-25T06:37:26;100425.56;;;6.44;77.26
34961;BME280;30789;52.030;7.110;2023-04-25T06:39:52;100421.63;;;6.87;76.58
34961;BME280;30789;52.030;7.110;2023-04-25T06:42:19;100417.94;;;6.76;77.13
34961;BME280;30789;52.030;7.110;2023-04-25T06:44:45;100417.38;;;6.67;75.86
34961;BME280;30789;52.030;7.110;2023-04-25T06:47:13;100425.72;;;6.96;76.18
34961;BME280;30789;52.030;7.110;2023-04-25T06:49:40;100427.28;;;6.97;75.12
34961;BME280;30789;52.030;7.110;2023-04-25T06:52:07;100432.91;;;6.82;75.91
34961;BME280;30789;52.030;7.110;2023-04-25T06:54:33;100436.47;;;7.09;75.42
34961;BME280;30789;52.030;7.110;2023-04-25T06:57:00;100436.34;;;7.24;74.01
34961;BME280;30789;52.030;7.110;2023-04-25T06:59:26;100443.94;;;7.08;74.21
34961;BME280;30789;52.030;7.110;2023-04-25T07:01:53;100437.28;;;7.09;73.74
34961;BME280;30789;52.030;7.110;2023-04-25T07:04:21;100437.53;;;7.27;72.31
34961;BME280;30789;52.030;7.110;2023-04-25T07:06:47;100446.88;;;7.22;71.49
34961;BME280;30789;52.030;7.110;2023-04-25T07:09:14;100437.53;;;7.27;71.17
34961;BME280;30789;52.030;7.110;2023-04-25T07:11:40;100444.16;;;7.48;71.56
34961;BME280;30789;52.030;7.110;2023-04-25T07:14:07;100440.25;;;7.49;70.77
34961;BME280;30789;52.030;7.110;2023-04-25T07:16:33;100444.13;;;7.45;69.81
34961;BME280;30789;52.030;7.110;2023-04-25T07:19:00;100442.41;;;7.37;70.50
34961;BME280;30789;52.030;7.110;2023-04-25T07:21:28;100438.94;;;7.40;70.42
34961;BME280;30789;52.030;7.110;2023-04-25T07:23:56;100451.25;;;7.53;69.27
34961;BME280;30789;52.030;7.110;2023-04-25T07:26:22;100449.63;;;7.22;70.10
34961;BME280;30789;52.030;7.110;2023-04-25T07:28:49;100446.13;;;7.25;69.93
34961;BME280;30789;52.030;7.110;2023-04-25T07:31:16;100451.06;;;7.39;69.74
34961;BME280;30789;52.030;7.110;2023-04-25T07:33:43;100454.72;;;7.76;70.00
34961;BME280;30789;52.030;7.110;2023-04-25T07:36:09;100453.66;;;7.84;68.24
34961;BME280;30789;52.030;7.110;2023-04-25T07:38:37;100464.03;;;7.68;68.80
34961;BME280;30789;52.030;7.110;2023-04-25T07:41:04;100458.34;;;7.83;69.42
34961;BME280;30789;52.030;7.110;2023-04-25T07:43:30;100466.94;;;7.52;69.40
34961;BME280;30789;52.030;7.110;2023-04-25T07:45:57;100461.50;;;7.56;68.79
34961;BME280;30789;52.030;7.110;2023-04-25T07:48:24;100466.28;;;7.62;68.99
34961;BME280;30789;52.030;7.110;2023-04-25T07:50:50;100467.94;;;7.41;67.74
34961;BME280;30789;52.030;7.110;2023-04-25T07:53:17;100480.28;;;7.54;68.26
34961;BME280;30789;52.030;7.110;2023-04-25T07:55:45;100474.50;;;7.59;67.44
34961;BME280;30789;52.030;7.110;2023-04-25T07:58:12;100490.88;;;7.81;66.45
34961;BME280;30789;52.030;7.110;2023-04-25T08:00:39;100480.28;;;7.54;66.83
34961;BME280;30789;52.030;7.110;2023-04-25T08:03:06;100476.88;;;7.60;66.79
34961;BME280;30789;52.030;7.110;2023-04-25T08:05:33;100482.38;;;7.90;67.20
34961;BME280;30789;52.030;7.110;2023-04-25T08:07:59;100490.50;;;7.83;68.05
34961;BME280;30789;52.030;7.110;2023-04-25T08:10:27;100494.75;;;7.80;66.26
34961;BME280;30789;52.030;7.110;2023-04-25T08:12:55;100489.13;;;7.70;66.61
34961;BME280;30789;52.030;7.110;2023-04-25T08:15:21;100505.00;;;7.83;65.54
34961;BME280;30789;52.030;7.110;2023-04-25T08:17:48;100510.47;;;7.83;65.08
34961;BME280;30789;52.030;7.110;2023-04-25T08:20:14;100507.69;;;8.06;62.98
34961;BME280;30789;52.030;7.110;2023-04-25T08:22:41;100506.22;;;8.41;62.98
34961;BME280;30789;52.030;7.110;2023-04-25T08:25:07;100507.59;;;8.58;61.40
34961;BME280;30789;52.030;7.110;2023-04-25T08:27:34;100505.50;;;8.81;61.05
34961;BME280;30789;52.030;7.110;2023-04-25T08:30:03;100519.47;;;8.36;61.31
34961;BME280;30789;52.030;7.110;2023-04-25T08:32:30;100519.72;;;7.98;62.18
34961;BME280;30789;52.030;7.110;2023-04-25T08:34:57;100517.41;;;8.00;62.20
34961;BME280;30789;52.030;7.110;2023-04-25T08:37:23;100521.16;;;8.44;62.72
34961;BME280;30789;52.030;7.110;2023-04-25T08:39:50;100525.28;;;8.97;61.76
34961;BME280;30789;52.030;7.110;2023-04-25T08:42:17;100533.00;;;9.21;61.06
34961;BME280;30789;52.030;7.110;2023-04-25T08:44:45;100525.69;;;8.99;58.62
34961;BME280;30789;52.030;7.110;2023-04-25T08:47:13;100534.97;;;8.84;57.85
34961;BME280;30789;52.030;7.110;2023-04-25T08:49:43;100535.97;;;8.69;58.84
34961;BME280;30789;52.030;7.110;2023-04-25T08:52:12;100543.22;;;8.84;58.72
34961;BME280;30789;52.030;7.110;2023-04-25T08:54:41;100540.41;;;8.81;57.72
34961;BME280;30789;52.030;7.110;2023-04-25T08:57:09;100542.41;;;8.84;55.17
34961;BME280;30789;52.030;7.110;2023-04-25T08:59:36;100550.00;;;8.94;53.54
34961;BME280;30789;52.030;7.110;2023-04-25T09:02:04;100539.84;;;9.01;55.05
34961;BME280;30789;52.030;7.110;2023-04-25T09:04:32;100548.16;;;9.08;55.06
34961;BME280;30789;52.030;7.110;2023-04-25T09:06:58;100552.81;;;9.41;54.76
34961;BME280;30789;52.030;7.110;2023-04-25T09:09:25;100555.03;;;9.28;54.34
34961;BME280;30789;52.030;7.110;2023-04-25T09:11:54;100564.28;;;9.10;51.61
34961;BME280;30789;52.030;7.110;2023-04-25T09:14:22;100565.13;;;9.17;52.42
34961;BME280;30789;52.030;7.110;2023-04-25T09:16:58;100563.66;;;9.27;51.99
34961;BME280;30789;52.030;7.110;2023-04-25T09:19:26;100570.22;;;9.55;53.27
34961;BME280;30789;52.030;7.110;2023-04-25T09:21:55;100564.94;;;9.83;50.97
34961;BME280;30789;52.030;7.110;2023-04-25T09:24:31;100565.66;;;9.73;51.94
34961;BME280;30789;52.030;7.110;2023-04-25T09:26:58;100567.72;;;9.87;52.86
34961;BME280;30789;52.030;7.110;2023-04-25T09:29:30;100570.19;;;10.02;52.66
34961;BME280;30789;52.030;7.110;2023-04-25T09:32:26;100575.16;;;9.83;52.49
34961;BME280;30789;52.030;7.110;2023-04-25T09:34:54;100577.22;;;9.96;53.38
34961;BME280;30789;52.030;7.110;2023-04-25T09:37:24;100577.72;;;10.09;50.20
34961;BME280;30789;52.030;7.110;2023-04-25T09:39:53;100587.41;;;9.92;48.20
34961;BME280;30789;52.030;7.110;2023-04-25T09:42:22;100588.63;;;9.98;47.46
34961;BME280;30789;52.030;7.110;2023-04-25T09:44:51;100592.59;;;10.04;47.08
34961;BME280;30789;52.030;7.110;2023-04-25T09:47:18;100595.72;;;9.96;47.48
34961;BME280;30789;52.030;7.110;2023-04-25T09:49:47;100601.00;;;10.18;50.01
34961;BME280;30789;52.030;7.110;2023-04-25T09:52:14;100590.50;;;9.87;49.75
34961;BME280;30789;52.030;7.110;2023-04-25T09:54:43;100596.78;;;10.35;49.37
34961;BME280;30789;52.030;7.110;2023-04-25T09:57:12;100598.75;;;10.34;48.34
34961;BME280;30789;52.030;7.110;2023-04-25T09:59:43;100605.91;;;9.95;48.75
34961;BME280;30789;52.030;7.110;2023-04-25T10:02:10;100608.75;;;9.59;48.52
34961;BME280;30789;52.030;7.110;2023-04-25T10:04:38;100616.50;;;9.46;48.30
34961;BME280;30789;52.030;7.110;2023-04-25T10:07:06;100623.47;;;9.37;49.21
34961;BME280;30789;52.030;7.110;2023-04-25T10:09:34;100606.44;;;8.88;49.12
34961;BME280;30789;52.030;7.110;2023-04-25T10:12:04;100622.03;;;8.80;51.14
34961;BME280;30789;52.030;7.110;2023-04-25T10:14:31;100628.53;;;9.31;52.60
34961;BME280;30789;52.030;7.110;2023-04-25T10:16:58;100635.78;;;9.50;53.27
34961;BME280;30789;52.030;7.110;2023-04-25T10:19:25;100629.97;;;10.56;52.73
34961;BME280;30789;52.030;7.110;2023-04-25T10:21:55;100636.44;;;10.88;52.66
34961;BME280;30789;52.030;7.110;2023-04-25T10:24:23;100633.44;;;11.42;49.85
34961;BME280;30789;52.030;7.110;2023-04-25T10:26:51;100628.09;;;10.78;49.79
34961;BME280;30789;52.030;7.110;2023-04-25T10:29:23;100629.16;;;11.73;49.80
34961;BME280;30789;52.030;7.110;2023-04-25T10:31:50;100636.25;;;11.67;48.59
34961;BME280;30789;52.030;7.110;2023-04-25T10:34:17;100630.19;;;12.84;47.38
34961;BME280;30789;52.030;7.110;2023-04-25T10:36:49;100643.28;;;13.59;45.57
34961;BME280;30789;52.030;7.110;2023-04-25T10:39:21;100639.00;;;13.48;46.77
34961;BME280;30789;52.030;7.110;2023-04-25T10:41:52;100636.50;;;12.92;44.00
34961;BME280;30789;52.030;7.110;2023-04-25T10:44:20;100636.25;;;12.27;44.58
34961;BME280;30789;52.030;7.110;2023-04-25T10:46:48;100636.59;;;12.50;46.86
34961;BME280;30789;52.030;7.110;2023-04-25T10:49:29;100638.53;;;12.70;44.81
34961;BME280;30789;52.030;7.110;2023-04-25T10:52:11;100651.66;;;11.89;44.85
34961;BME280;30789;52.030;7.110;2023-04-25T10:54:40;100661.91;;;11.78;45.97
34961;BME280;30789;52.030;7.110;2023-04-25T10:57:07;100661.28;;;10.27;52.85
34961;BME280;30789;52.030;7.110;2023-04-25T10:59:33;100654.84;;;9.32;56.21
34961;BME280;30789;52.030;7.110;2023-04-25T11:02:11;100662.44;;;9.06;59.57
34961;BME280;30789;52.030;7.110;2023-04-25T11:04:38;100668.13;;;9.23;60.25
34961;BME280;30789;52.030;7.110;2023-04-25T11:07:09;100668.44;;;9.18;60.75
34961;BME280;30789;52.030;7.110;2023-04-25T11:09:39;100672.44;;;8.91;61.97
34961;BME280;30789;52.030;7.110;2023-04-25T11:12:07;100676.34;;;8.60;61.96
34961;BME280;30789;52.030;7.110;2023-04-25T11:14:35;100672.25;;;8.77;61.28
34961;BME280;30789;52.030;7.110;2023-04-25T11:17:03;100673.91;;;8.55;61.97
34961;BME280;30789;52.030;7.110;2023-04-25T11:19:30;100667.91;;;8.46;60.20
34961;BME280;30789;52.030;7.110;2023-04-25T11:21:57;100672.41;;;8.58;61.38
34961;BME280;30789;52.030;7.110;2023-04-25T11:24:26;100669.66;;;8.32;63.18
34961;BME280;30789;52.030;7.110;2023-04-25T11:26:53;100678.34;;;8.37;62.41
34961;BME280;30789;52.030;7.110;2023-04-25T11:29:21;100689.06;;;7.97;65.04
34961;BME280;30789;52.030;7.110;2023-04-25T11:31:48;100675.47;;;8.27;66.10
34961;BME280;30789;52.030;7.110;2023-04-25T11:34:18;100685.84;;;8.40;64.74
34961;BME280;30789;52.030;7.110;2023-04-25T11:36:44;100687.66;;;8.07;64.45
34961;BME280;30789;52.030;7.110;2023-04-25T11:39:11;100674.09;;;8.66;64.64
34961;BME280;30789;52.030;7.110;2023-04-25T11:41:38;100675.88;;;9.14;63.63
34961;BME280;30789;52.030;7.110;2023-04-25T11:44:05;100691.50;;;9.76;61.98
34961;BME280;30789;52.030;7.110;2023-04-25T11:46:33;100678.53;;;10.20;60.99
34961;BME280;30789;52.030;7.110;2023-04-25T11:49:01;100674.16;;;10.81;58.35
34961;BME280;30789;52.030;7.110;2023-04-25T11:51:29;100671.97;;;11.18;57.17
34961;BME280;30789;52.030;7.110;2023-04-25T11:53:56;100666.84;;;11.16;57.51
34961;BME280;30789;52.030;7.110;2023-04-25T11:56:22;100671.78;;;12.03;54.48
34961;BME280;30789;52.030;7.110;2023-04-25T11:58:59;100662.22;;;12.68;51.27
34961;BME280;30789;52.030;7.110;2023-04-25T12:01:28;100666.09;;;13.09;51.89
34961;BME280;30789;52.030;7.110;2023-04-25T12:03:55;100668.69;;;13.99;47.77
34961;BME280;30789;52.030;7.110;2023-04-25T12:06:26;100670.75;;;14.39;46.43
34961;BME280;30789;52.030;7.110;2023-04-25T12:09:02;100678.34;;;14.72;44.55
34961;BME280;30789;52.030;7.110;2023-04-25T12:11:30;100671.88;;;14.48;45.12
34961;BME280;30789;52.030;7.110;2023-04-25T12:14:01;100665.25;;;14.35;44.21
34961;BME280;30789;52.030;7.110;2023-04-25T12:16:28;100677.56;;;13.80;46.64
34961;BME280;30789;52.030;7.110;2023-04-25T12:18:55;100670.16;;;12.66;47.94
34961;BME280;30789;52.030;7.110;2023-04-25T12:21:22;100673.44;;;13.40;44.49
34961;BME280;30789;52.030;7.110;2023-04-25T12:23:48;100675.66;;;14.21;43.57
34961;BME280;30789;52.030;7.110;2023-04-25T12:26:17;100669.91;;;13.98;45.50
34961;BME280;30789;52.030;7.110;2023-04-25T12:28:45;100666.13;;;14.22;41.06
34961;BME280;30789;52.030;7.110;2023-04-25T12:31:13;100674.25;;;13.99;39.59
34961;BME280;30789;52.030;7.110;2023-04-25T12:33:42;100676.78;;;14.30;38.18
34961;BME280;30789;52.030;7.110;2023-04-25T12:36:12;100680.84;;;14.15;36.26
34961;BME280;30789;52.030;7.110;2023-04-25T12:38:41;100682.13;;;14.07;36.62
34961;BME280;30789;52.030;7.110;2023-04-25T12:41:08;100680.09;;;14.59;37.77
34961;BME280;30789;52.030;7.110;2023-04-25T12:43:36;100683.00;;;14.45;37.79
34961;BME280;30789;52.030;7.110;2023-04-25T12:46:03;100683.94;;;14.24;37.05
34961;BME280;30789;52.030;7.110;2023-04-25T12:48:29;100678.13;;;14.08;38.71
34961;BME280;30789;52.030;7.110;2023-04-25T12:50:56;100672.31;;;13.92;38.82
34961;BME280;30789;52.030;7.110;2023-04-25T12:53:23;100677.16;;;14.32;38.05
34961;BME280;30789;52.030;7.110;2023-04-25T12:55:50;100685.06;;;13.83;38.01
34961;BME280;30789;52.030;7.110;2023-04-25T12:58:17;100682.41;;;12.54;44.61